Time;durP1;ratioP1;P1;durP2;ratioP2;P2;SDS_P1;SDS_P2;PMS_P1;PMS_P2;Temp;Humidity;BMP_temperature;BMP_pressure;BME280_temperature;BME280_humidity;BME280_pressure;Samples;Min_cycle;Max_cycle;Signal;HPM_P1;HPM_P2
2021/04/30 00:01:37;;;;;;;3.53;2.65;;;14.00;68.30;;;;;;5093622;28;20097;-41
2021/04/30 00:04:03;;;;;;;3.30;2.97;;;14.00;68.30;;;;;;5093582;28;20048;-39
2021/04/30 00:06:29;;;;;;;4.65;3.13;;;14.00;68.30;;;;;;5100656;28;20106;-40
2021/04/30 00:08:55;;;;;;;3.92;3.20;;;14.00;68.30;;;;;;5114322;28;20135;-41
2021/04/30 00:11:20;;;;;;;3.03;2.72;;;14.00;68.30;;;;;;5114339;28;20054;-40
2021/04/30 00:13:46;;;;;;;3.67;3.00;;;14.00;68.30;;;;;;5114005;28;20485;-40
2021/04/30 00:16:12;;;;;;;3.00;2.65;;;14.00;68.20;;;;;;5113916;28;20047;-39
2021/04/30 00:18:38;;;;;;;3.47;3.00;;;14.00;68.30;;;;;;5113359;28;20527;-39
2021/04/30 00:21:04;;;;;;;3.78;3.08;;;14.10;68.30;;;;;;5114134;28;20060;-41
2021/04/30 00:23:32;;;;;;;3.92;3.20;;;14.00;68.30;;;;;;5113444;28;20463;-41
2021/04/30 00:26:03;;;;;;;3.88;3.08;;;14.00;68.30;;;;;;5114299;28;20048;-40
2021/04/30 00:28:29;;;;;;;3.03;2.72;;;14.00;68.30;;;;;;5114209;28;20071;-40
2021/04/30 00:30:56;;;;;;;4.30;3.03;;;14.00;68.30;;;;;;5113880;28;20085;-40
2021/04/30 00:33:23;;;;;;;4.28;2.92;;;14.00;68.30;;;;;;5113324;28;20492;-38
2021/04/30 00:35:49;;;;;;;3.05;2.63;;;13.90;68.20;;;;;;5113775;28;20483;-40
2021/04/30 00:38:16;;;;;;;3.47;2.65;;;14.00;68.30;;;;;;5113895;28;20050;-39
2021/04/30 00:40:41;;;;;;;3.35;2.67;;;14.00;68.30;;;;;;5113807;28;20376;-42
2021/04/30 00:43:09;;;;;;;3.70;3.20;;;14.00;68.30;;;;;;5113558;28;20072;-41
2021/04/30 00:45:35;;;;;;;3.58;3.20;;;13.90;68.20;;;;;;5113762;28;20112;-40
2021/04/30 00:48:01;;;;;;;3.10;2.80;;;13.90;68.30;;;;;;5113146;28;20048;-40
2021/04/30 00:50:28;;;;;;;3.40;3.10;;;14.00;68.30;;;;;;5113501;28;20054;-40
2021/04/30 00:52:54;;;;;;;3.10;2.50;;;13.90;68.90;;;;;;5113533;28;20148;-40
2021/04/30 00:55:21;;;;;;;3.03;2.72;;;13.90;68.30;;;;;;5113645;28;20040;-40
2021/04/30 00:58:00;;;;;;;3.80;2.67;;;14.00;68.30;;;;;;5113665;28;20127;-39
2021/04/30 01:00:28;;;;;;;3.40;3.10;;;13.90;68.30;;;;;;5113005;28;20047;-39
2021/04/30 01:02:54;;;;;;;3.80;2.95;;;13.90;68.30;;;;;;5113451;28;20072;-40
2021/04/30 01:05:21;;;;;;;3.88;2.72;;;14.00;68.30;;;;;;5113312;28;20058;-40
2021/04/30 01:07:47;;;;;;;2.88;2.58;;;13.90;68.30;;;;;;5095252;28;20044;-39
2021/04/30 01:10:22;;;;;;;3.10;2.80;;;13.90;68.30;;;;;;5092918;28;20048;-41
2021/04/30 01:12:48;;;;;;;2.85;2.65;;;13.90;68.30;;;;;;5092796;28;20048;-39
2021/04/30 01:15:16;;;;;;;3.00;2.53;;;13.90;68.30;;;;;;5092712;28;20087;-40
2021/04/30 01:17:42;;;;;;;3.22;2.92;;;13.90;68.30;;;;;;5093136;28;20101;-38
2021/04/30 01:20:09;;;;;;;2.90;2.55;;;13.90;68.30;;;;;;5092585;28;20109;-39
2021/04/30 01:22:44;;;;;;;2.90;2.63;;;13.90;68.90;;;;;;5092736;28;20076;-37
2021/04/30 01:25:22;;;;;;;3.60;2.50;;;13.90;68.30;;;;;;5093103;28;20056;-39
2021/04/30 01:27:48;;;;;;;3.55;2.35;;;13.90;68.30;;;;;;5092422;28;20058;-39
2021/04/30 01:30:17;;;;;;;2.95;2.63;;;14.10;68.40;;;;;;5092986;28;20123;-40
2021/04/30 01:32:44;;;;;;;2.78;2.50;;;13.90;68.30;;;;;;5092879;28;20076;-40
2021/04/30 01:35:11;;;;;;;3.17;2.67;;;13.90;68.30;;;;;;5093221;28;20097;-38
2021/04/30 01:37:37;;;;;;;3.15;2.72;;;13.90;68.30;;;;;;5096940;28;20060;-41
2021/04/30 01:40:14;;;;;;;2.90;2.50;;;13.90;68.30;;;;;;5096607;28;20481;-42
2021/04/30 01:42:56;;;;;;;3.03;2.63;;;13.90;68.30;;;;;;5096563;28;20086;-38
2021/04/30 01:45:22;;;;;;;5.40;2.95;;;13.90;68.30;;;;;;5096848;28;20044;-38
2021/04/30 01:47:47;;;;;;;3.95;2.70;;;13.90;68.30;;;;;;5096593;28;20079;-39
2021/04/30 01:50:13;;;;;;;2.97;2.38;;;13.90;68.30;;;;;;5096373;28;20059;-39
2021/04/30 01:52:39;;;;;;;2.80;2.55;;;13.90;68.30;;;;;;5096579;28;20059;-40
2021/04/30 01:55:05;;;;;;;2.60;2.40;;;14.00;68.30;;;;;;5096418;28;20122;-39
2021/04/30 01:57:31;;;;;;;3.47;2.63;;;13.90;68.30;;;;;;5096220;28;20475;-39
2021/04/30 01:59:56;;;;;;;3.30;2.97;;;13.90;68.30;;;;;;5096203;28;20087;-39
2021/04/30 02:02:24;;;;;;;3.17;2.88;;;13.90;68.30;;;;;;5096299;28;20044;-41
2021/04/30 02:04:51;;;;;;;2.90;2.60;;;13.90;68.30;;;;;;5096387;28;20158;-39
2021/04/30 02:07:17;;;;;;;2.63;2.40;;;14.00;68.30;;;;;;5109565;28;20039;-42
2021/04/30 02:09:43;;;;;;;3.10;2.75;;;13.90;69.00;;;;;;5116592;28;20495;-39
2021/04/30 02:12:09;;;;;;;2.83;2.55;;;13.90;68.40;;;;;;5116503;28;20411;-39
2021/04/30 02:14:34;;;;;;;3.80;2.67;;;14.00;68.40;;;;;;5116776;28;20090;-38
2021/04/30 02:17:00;;;;;;;2.95;2.65;;;14.00;68.40;;;;;;5116460;28;20075;-41
2021/04/30 02:19:26;;;;;;;3.38;2.70;;;13.90;68.30;;;;;;5116218;28;20047;-39
2021/04/30 02:21:52;;;;;;;2.88;2.67;;;13.90;68.40;;;;;;5116239;28;20423;-39
2021/04/30 02:24:17;;;;;;;3.47;2.97;;;13.90;68.30;;;;;;5116197;28;20039;-39
2021/04/30 02:26:43;;;;;;;3.45;2.75;;;13.90;68.30;;;;;;5116194;28;20495;-41
2021/04/30 02:29:09;;;;;;;2.75;2.40;;;13.90;68.40;;;;;;5114541;28;20047;-39
2021/04/30 02:31:34;;;;;;;3.42;2.72;;;13.90;68.30;;;;;;5116404;28;20056;-40
2021/04/30 02:34:02;;;;;;;3.20;2.60;;;13.90;68.00;;;;;;5114964;28;20043;-38
2021/04/30 02:36:28;;;;;;;2.70;2.50;;;13.90;68.30;;;;;;5115721;28;20044;-39
2021/04/30 02:38:53;;;;;;;2.95;2.67;;;13.90;68.30;;;;;;5115719;28;20487;-39
2021/04/30 02:41:19;;;;;;;2.80;2.50;;;13.90;68.30;;;;;;5115870;28;20043;-39
2021/04/30 02:43:45;;;;;;;3.10;2.80;;;13.90;68.30;;;;;;5116169;28;20040;-38
2021/04/30 02:46:10;;;;;;;3.63;2.95;;;13.90;68.30;;;;;;5115588;28;20047;-41
2021/04/30 02:48:37;;;;;;;2.85;2.40;;;13.90;69.00;;;;;;5115863;28;20058;-39
2021/04/30 02:51:08;;;;;;;3.95;2.75;;;13.90;68.30;;;;;;5116061;28;20044;-40
2021/04/30 02:53:33;;;;;;;2.60;2.40;;;13.90;68.30;;;;;;5114276;28;20056;-38
2021/04/30 02:55:59;;;;;;;2.65;2.45;;;13.90;68.30;;;;;;5114450;28;20069;-38
2021/04/30 02:58:26;;;;;;;2.75;2.17;;;13.90;68.30;;;;;;5114733;28;20054;-36
2021/04/30 03:00:51;;;;;;;2.65;2.45;;;13.90;68.40;;;;;;5114675;28;20048;-39
2021/04/30 03:03:17;;;;;;;3.25;2.95;;;13.90;68.30;;;;;;5114476;28;20047;-38
2021/04/30 03:05:43;;;;;;;2.90;2.63;;;13.90;68.40;;;;;;5114101;28;20384;-38
2021/04/30 03:08:09;;;;;;;2.92;2.40;;;13.90;68.40;;;;;;5093732;28;20044;-39
2021/04/30 03:10:35;;;;;;;3.13;2.47;;;13.90;68.30;;;;;;5093888;28;20040;-39
2021/04/30 03:13:02;;;;;;;2.92;2.35;;;13.90;68.30;;;;;;5093663;28;20070;-38
2021/04/30 03:15:28;;;;;;;2.63;2.42;;;13.90;68.30;;;;;;5094016;28;20449;-39
2021/04/30 03:17:54;;;;;;;3.08;2.78;;;13.90;68.30;;;;;;5094008;28;20230;-39
2021/04/30 03:20:21;;;;;;;2.72;2.40;;;13.90;68.30;;;;;;5093585;28;20484;-39
2021/04/30 03:22:47;;;;;;;3.08;2.70;;;13.90;68.30;;;;;;5093520;28;20484;-39
2021/04/30 03:25:14;;;;;;;2.80;2.60;;;13.90;68.40;;;;;;5093561;28;20082;-39
2021/04/30 03:27:40;;;;;;;2.67;2.45;;;13.90;68.40;;;;;;5093498;28;20043;-39
2021/04/30 03:30:07;;;;;;;2.92;2.63;;;13.90;68.40;;;;;;5093691;28;20461;-40
2021/04/30 03:32:33;;;;;;;3.90;2.95;;;13.90;68.40;;;;;;5093688;28;20051;-38
2021/04/30 03:34:59;;;;;;;2.90;2.60;;;13.90;68.40;;;;;;5093390;28;20625;-37
2021/04/30 03:37:25;;;;;;;2.78;2.42;;;13.90;68.40;;;;;;5093616;28;20139;-41
2021/04/30 03:39:51;;;;;;;3.60;2.50;;;13.90;68.40;;;;;;5093036;28;20079;-37
2021/04/30 03:42:17;;;;;;;4.65;2.30;;;13.90;68.40;;;;;;5093347;28;20048;-39
2021/04/30 03:44:43;;;;;;;3.50;2.40;;;13.90;68.40;;;;;;5093433;28;20629;-39
2021/04/30 03:47:10;;;;;;;3.17;2.53;;;13.90;68.40;;;;;;5093567;28;20079;-40
2021/04/30 03:49:36;;;;;;;2.60;2.40;;;13.90;68.40;;;;;;5093254;28;20044;-41
2021/04/30 03:52:02;;;;;;;2.53;2.33;;;13.90;68.40;;;;;;5073293;28;564092;-40
2021/04/30 03:54:27;;;;;;;2.80;2.50;;;13.90;68.40;;;;;;5093843;28;20051;-38
2021/04/30 03:56:53;;;;;;;2.58;2.35;;;13.90;68.40;;;;;;5093675;28;20036;-36
2021/04/30 03:59:19;;;;;;;3.08;2.67;;;13.90;68.40;;;;;;5092759;28;20056;-40
2021/04/30 04:01:44;;;;;;;2.72;2.38;;;13.90;68.40;;;;;;5093256;28;20594;-39
2021/04/30 04:04:10;;;;;;;3.47;2.85;;;13.90;68.40;;;;;;5093150;28;20059;-39
2021/04/30 04:06:36;;;;;;;3.08;2.38;;;13.90;68.40;;;;;;5100937;28;20271;-38
2021/04/30 04:09:02;;;;;;;3.45;2.55;;;13.90;68.40;;;;;;5113424;28;20059;-40
2021/04/30 04:11:29;;;;;;;2.70;2.50;;;13.90;68.40;;;;;;5113846;28;20039;-39
2021/04/30 04:13:54;;;;;;;2.83;2.50;;;13.90;68.40;;;;;;5114051;28;20044;-40
2021/04/30 04:16:20;;;;;;;3.05;2.70;;;13.90;68.40;;;;;;5114018;28;20047;-39
2021/04/30 04:18:46;;;;;;;2.95;2.60;;;13.90;68.40;;;;;;5113917;28;20043;-40
2021/04/30 04:21:12;;;;;;;3.15;2.80;;;13.80;68.30;;;;;;5112896;28;20138;-42
2021/04/30 04:23:38;;;;;;;3.08;2.45;;;13.90;68.40;;;;;;5112472;28;20052;-40
2021/04/30 04:26:03;;;;;;;3.15;2.47;;;13.90;68.40;;;;;;5113714;28;20093;-40
2021/04/30 04:28:29;;;;;;;2.95;2.40;;;13.80;68.30;;;;;;5113848;28;20491;-40
2021/04/30 04:30:58;;;;;;;3.08;2.22;;;13.80;68.30;;;;;;5113788;28;20048;-40
2021/04/30 04:33:24;;;;;;;3.35;2.25;;;13.90;68.40;;;;;;5113856;28;20074;-39
2021/04/30 04:35:50;;;;;;;3.53;2.45;;;13.90;68.40;;;;;;5113987;28;20044;-38
2021/04/30 04:38:15;;;;;;;2.72;2.50;;;13.90;68.40;;;;;;5114090;28;20051;-37
2021/04/30 04:40:41;;;;;;;3.33;2.65;;;13.80;68.30;;;;;;5113324;28;20078;-42
2021/04/30 04:43:07;;;;;;;2.33;2.05;;;13.80;68.30;;;;;;5113520;28;20043;-40
2021/04/30 04:45:33;;;;;;;2.08;1.92;;;13.80;68.30;;;;;;5113570;28;20423;-39
2021/04/30 04:47:58;;;;;;;2.53;2.33;;;13.80;68.30;;;;;;5113520;28;20043;-39
2021/04/30 04:50:24;;;;;;;2.40;2.10;;;13.80;68.40;;;;;;5113747;28;20044;-41
2021/04/30 04:52:50;;;;;;;2.53;2.33;;;13.90;68.40;;;;;;5113329;28;20059;-38
2021/04/30 04:55:17;;;;;;;3.03;2.50;;;13.80;68.40;;;;;;5113364;28;20114;-41
2021/04/30 04:57:44;;;;;;;2.25;2.05;;;13.80;68.40;;;;;;5113039;28;20504;-41
2021/04/30 05:00:11;;;;;;;4.38;2.22;;;13.80;68.40;;;;;;5113007;28;20109;-40
2021/04/30 05:02:38;;;;;;;2.85;2.42;;;13.80;68.40;;;;;;5113334;28;20519;-42
2021/04/30 05:05:05;;;;;;;2.72;2.20;;;13.80;68.30;;;;;;5113582;28;20039;-41
2021/04/30 05:07:30;;;;;;;2.75;2.30;;;13.80;68.40;;;;;;5097622;28;20044;-42
2021/04/30 05:09:57;;;;;;;4.63;2.40;;;13.80;68.40;;;;;;5092936;28;20408;-39
2021/04/30 05:12:22;;;;;;;2.58;2.10;;;13.80;68.40;;;;;;5092365;28;20047;-39
2021/04/30 05:14:48;;;;;;;3.05;2.25;;;13.80;68.40;;;;;;5092782;28;20101;-39
2021/04/30 05:17:14;;;;;;;3.00;2.20;;;13.80;68.40;;;;;;5093043;28;20048;-40
2021/04/30 05:19:39;;;;;;;3.03;2.40;;;13.80;68.40;;;;;;5092776;28;20075;-40
2021/04/30 05:22:10;;;;;;;2.65;2.45;;;13.80;68.40;;;;;;5092926;28;20100;-40
2021/04/30 05:24:36;;;;;;;3.13;2.50;;;13.80;69.00;;;;;;5092944;28;20072;-39
2021/04/30 05:27:05;;;;;;;2.92;2.55;;;13.80;68.40;;;;;;5092400;28;20471;-39
2021/04/30 05:29:31;;;;;;;3.42;2.30;;;13.80;68.40;;;;;;5092657;28;20480;-39
2021/04/30 05:31:57;;;;;;;2.67;1.92;;;13.80;68.40;;;;;;5092876;28;20071;-39
2021/04/30 05:34:23;;;;;;;2.60;2.40;;;13.80;68.40;;;;;;5092790;28;20087;-40
2021/04/30 05:36:48;;;;;;;3.25;2.75;;;13.80;68.40;;;;;;5092652;28;20062;-39
2021/04/30 05:39:14;;;;;;;3.30;2.00;;;13.80;68.40;;;;;;5092550;28;20077;-41
2021/04/30 05:41:40;;;;;;;2.97;2.28;;;13.80;68.40;;;;;;5092742;28;20495;-42
2021/04/30 05:44:05;;;;;;;2.58;2.13;;;13.80;68.40;;;;;;5092075;28;20043;-40
2021/04/30 05:46:31;;;;;;;2.30;2.10;;;13.80;68.40;;;;;;5092456;28;20450;-40
2021/04/30 05:48:57;;;;;;;3.08;2.53;;;13.90;68.50;;;;;;5092617;28;20048;-41
2021/04/30 05:51:22;;;;;;;2.67;2.38;;;13.80;68.40;;;;;;5092251;28;20488;-39
2021/04/30 05:53:48;;;;;;;2.35;2.08;;;13.80;68.40;;;;;;5091841;28;20060;-38
2021/04/30 05:56:14;;;;;;;2.75;2.10;;;13.70;68.30;;;;;;5092237;28;20484;-43
2021/04/30 05:58:39;;;;;;;3.05;2.45;;;13.80;68.40;;;;;;5092024;28;20206;-39
2021/04/30 06:01:05;;;;;;;2.92;2.28;;;13.80;68.40;;;;;;5092375;28;20048;-39
2021/04/30 06:03:31;;;;;;;1.95;1.75;;;13.80;68.40;;;;;;5092330;28;20090;-39
2021/04/30 06:05:56;;;;;;;2.40;2.05;;;13.70;68.40;;;;;;5092611;28;20549;-42
2021/04/30 06:08:22;;;;;;;4.50;2.55;;;13.80;68.40;;;;;;5092354;28;20503;-40
2021/04/30 06:10:48;;;;;;;2.50;2.03;;;13.80;68.40;;;;;;5092460;28;20051;-40
2021/04/30 06:13:14;;;;;;;2.70;2.40;;;13.90;68.50;;;;;;5092471;28;20455;-38
2021/04/30 06:15:40;;;;;;;2.88;2.13;;;13.80;68.50;;;;;;5091648;28;20040;-40
2021/04/30 06:18:06;;;;;;;2.70;2.00;;;13.80;68.40;;;;;;5092443;28;20040;-39
2021/04/30 06:20:31;;;;;;;2.63;2.33;;;13.80;68.40;;;;;;5091956;28;20048;-39
2021/04/30 06:22:57;;;;;;;2.17;1.77;;;13.80;68.40;;;;;;5095630;28;20048;-39
2021/04/30 06:25:23;;;;;;;2.78;2.20;;;13.80;68.40;;;;;;5096075;28;20039;-40
2021/04/30 06:27:48;;;;;;;2.63;2.40;;;13.80;68.40;;;;;;5095754;28;20131;-39
2021/04/30 06:30:15;;;;;;;2.85;2.40;;;13.90;69.20;;;;;;5095421;28;20148;-40
2021/04/30 06:32:43;;;;;;;2.10;1.90;;;13.80;68.40;;;;;;5096090;28;20101;-39
2021/04/30 06:35:10;;;;;;;2.28;1.90;;;13.90;68.50;;;;;;5095397;28;20044;-40
2021/04/30 06:37:38;;;;;;;2.72;2.05;;;13.80;68.40;;;;;;5095516;28;20036;-40
2021/04/30 06:40:05;;;;;;;2.65;2.00;;;13.70;68.40;;;;;;5095682;28;20137;-39
2021/04/30 06:42:31;;;;;;;2.95;2.05;;;13.80;68.50;;;;;;5095727;28;20073;-40
2021/04/30 06:44:56;;;;;;;2.42;2.22;;;13.80;68.50;;;;;;5095179;28;20142;-40
2021/04/30 06:47:22;;;;;;;2.88;1.90;;;13.90;68.50;;;;;;5095149;28;20052;-40
2021/04/30 06:49:48;;;;;;;2.65;2.10;;;13.80;68.40;;;;;;5095265;28;20097;-39
2021/04/30 06:52:14;;;;;;;1.80;1.70;;;13.90;68.50;;;;;;5094840;28;20109;-40
2021/04/30 06:54:40;;;;;;;2.33;1.80;;;13.80;68.40;;;;;;5095099;28;20476;-40
2021/04/30 06:57:06;;;;;;;2.33;2.03;;;13.80;68.50;;;;;;5095314;28;20044;-39
2021/04/30 06:59:32;;;;;;;2.58;1.85;;;13.80;68.40;;;;;;5095282;28;20126;-39
2021/04/30 07:01:57;;;;;;;3.00;2.10;;;13.80;68.50;;;;;;5094644;28;20131;-39
2021/04/30 07:04:23;;;;;;;3.95;2.22;;;13.80;68.50;;;;;;5094828;28;20060;-43
2021/04/30 07:06:49;;;;;;;2.35;2.00;;;13.80;68.50;;;;;;5094139;28;20050;-42
2021/04/30 07:09:15;;;;;;;2.17;1.90;;;13.80;68.40;;;;;;5094887;28;20048;-42
2021/04/30 07:11:41;;;;;;;3.53;1.90;;;13.80;68.50;;;;;;5115438;28;20047;-42
2021/04/30 07:14:07;;;;;;;4.20;2.55;;;13.80;68.40;;;;;;5108779;28;20496;-41
2021/04/30 07:16:32;;;;;;;2.10;1.90;;;13.90;68.50;;;;;;5094815;28;20480;-42
2021/04/30 07:18:58;;;;;;;2.13;1.80;;;13.80;68.40;;;;;;5094642;28;20571;-43
2021/04/30 07:21:24;;;;;;;2.88;1.90;;;13.90;68.50;;;;;;5094920;28;20122;-42
2021/04/30 07:23:50;;;;;;;2.60;1.90;;;13.80;68.40;;;;;;5095011;28;20483;-40
2021/04/30 07:26:16;;;;;;;2.35;2.10;;;13.80;68.40;;;;;;5101017;28;20123;-43
2021/04/30 07:28:42;;;;;;;4.05;2.42;;;13.90;68.50;;;;;;5115207;27;20444;-43
2021/04/30 07:31:08;;;;;;;2.80;2.10;;;13.80;68.50;;;;;;5114823;28;20070;-40
2021/04/30 07:33:37;;;;;;;2.35;2.15;;;13.80;68.50;;;;;;5113792;28;20043;-44
2021/04/30 07:36:06;;;;;;;3.45;2.10;;;13.80;68.40;;;;;;5115045;28;20043;-42
2021/04/30 07:38:31;;;;;;;2.75;2.00;;;13.80;68.40;;;;;;5114970;28;20048;-41
2021/04/30 07:40:57;;;;;;;2.30;1.77;;;13.80;68.40;;;;;;5114818;28;20044;-41
2021/04/30 07:43:23;;;;;;;2.65;1.90;;;13.90;68.50;;;;;;5114862;28;20122;-42
2021/04/30 07:45:49;;;;;;;2.00;1.80;;;13.90;68.50;;;;;;5114606;28;20050;-40
2021/04/30 07:48:15;;;;;;;2.03;1.80;;;13.80;68.50;;;;;;5114221;28;20122;-43
2021/04/30 07:50:40;;;;;;;2.28;2.00;;;13.90;68.50;;;;;;5114972;28;20126;-41
2021/04/30 07:53:07;;;;;;;2.15;1.90;;;13.80;68.50;;;;;;5114576;28;20052;-43
2021/04/30 07:55:33;;;;;;;11.77;5.47;;;13.80;68.50;;;;;;5113030;28;20456;-43
2021/04/30 07:57:59;;;;;;;4.90;3.67;;;13.80;68.70;;;;;;5114693;28;20050;-45
2021/04/30 08:00:25;;;;;;;5.78;3.42;;;13.80;68.90;;;;;;5114760;28;20051;-45
2021/04/30 08:02:51;;;;;;;5.45;3.33;;;13.90;69.00;;;;;;5107483;28;20122;-44
2021/04/30 08:05:17;;;;;;;5.40;2.83;;;13.80;68.90;;;;;;5094106;28;20070;-43
2021/04/30 08:07:42;;;;;;;5.00;3.50;;;13.80;69.00;;;;;;5094280;28;20500;-44
2021/04/30 08:10:10;;;;;;;6.47;3.55;;;13.80;69.00;;;;;;5094066;28;20055;-42
2021/04/30 08:12:37;;;;;;;6.15;3.30;;;13.80;69.00;;;;;;5093889;28;20503;-45
2021/04/30 08:15:04;;;;;;;7.45;4.07;;;13.80;68.90;;;;;;5093727;28;20048;-45
2021/04/30 08:17:29;;;;;;;3.95;2.70;;;13.80;68.90;;;;;;5093509;28;20050;-41
2021/04/30 08:19:58;;;;;;;5.40;2.90;;;13.80;68.90;;;;;;5093792;28;20130;-44
2021/04/30 08:22:26;;;;;;;6.70;3.35;;;13.80;68.90;;;;;;5093745;28;20119;-45
2021/04/30 08:24:51;;;;;;;4.30;3.38;;;13.90;68.90;;;;;;5093379;28;20097;-42
2021/04/30 08:27:19;;;;;;;10.68;5.88;;;13.80;68.80;;;;;;5113310;28;20048;-44
2021/04/30 08:29:46;;;;;;;11.85;4.50;;;13.90;69.00;;;;;;5107451;28;20043;-41
2021/04/30 08:32:11;;;;;;;4.57;3.10;;;13.80;69.00;;;;;;5093388;28;20480;-44
2021/04/30 08:34:37;;;;;;;7.70;4.15;;;13.80;69.00;;;;;;5093250;28;20059;-46
2021/04/30 08:37:03;;;;;;;5.88;4.00;;;13.80;69.00;;;;;;5093173;28;20480;-46
2021/04/30 08:39:28;;;;;;;5.28;3.92;;;13.80;69.00;;;;;;5093234;28;20539;-44
2021/04/30 08:41:55;;;;;;;6.07;4.22;;;13.80;69.00;;;;;;5099217;28;20044;-45
2021/04/30 08:44:20;;;;;;;7.97;4.47;;;13.80;69.00;;;;;;5113223;28;20047;-46
2021/04/30 08:46:46;;;;;;;6.93;4.13;;;13.80;69.00;;;;;;5113542;28;20119;-44
2021/04/30 08:49:12;;;;;;;7.45;3.63;;;13.80;69.00;;;;;;5112927;28;20081;-42
2021/04/30 08:51:39;;;;;;;5.53;4.13;;;13.80;69.00;;;;;;5113261;28;20039;-44
2021/04/30 08:54:06;;;;;;;9.25;4.00;;;13.80;69.00;;;;;;5113097;28;20519;-39
2021/04/30 08:56:45;;;;;;;16.70;8.10;;;13.80;69.00;;;;;;5113300;28;20047;-41
2021/04/30 08:59:12;;;;;;;18.75;9.25;;;13.80;68.90;;;;;;5113313;28;20039;-41
2021/04/30 09:01:37;;;;;;;20.60;8.98;;;13.60;68.80;;;;;;5113106;28;20150;-40
2021/04/30 09:04:07;;;;;;;18.02;8.80;;;13.50;69.00;;;;;;5111840;28;20050;-38
2021/04/30 09:06:38;;;;;;;16.20;8.15;;;13.50;69.20;;;;;;5089773;28;20129;-37
2021/04/30 09:09:10;;;;;;;13.88;7.57;;;13.50;69.20;;;;;;5092412;28;20047;-42
2021/04/30 09:11:53;;;;;;;14.30;7.63;;;13.50;69.20;;;;;;5091886;28;20075;-42
2021/04/30 09:14:30;;;;;;;11.43;7.63;;;13.50;69.20;;;;;;5091809;28;20499;-41
2021/04/30 09:16:59;;;;;;;11.68;6.78;;;13.50;69.30;;;;;;5092222;28;20071;-40
2021/04/30 09:19:36;;;;;;;12.85;7.35;;;13.50;69.20;;;;;;5092148;28;20147;-40
2021/04/30 09:22:05;;;;;;;17.10;7.70;;;13.60;69.30;;;;;;5071725;28;20556;-40
2021/04/30 09:24:31;;;;;;;12.43;7.30;;;13.60;69.20;;;;;;5072040;28;20048;-40
2021/04/30 09:26:57;;;;;;;9.15;6.97;;;13.60;69.20;;;;;;5071467;28;20480;-42
2021/04/30 09:29:24;;;;;;;12.50;7.18;;;13.60;69.30;;;;;;5071847;28;20075;-43
2021/04/30 09:31:50;;;;;;;13.55;7.65;;;13.60;69.20;;;;;;5071975;28;20072;-38
2021/04/30 09:34:35;;;;;;;10.82;7.05;;;13.70;69.20;;;;;;5071735;28;20161;-50
2021/04/30 09:37:15;;;;;;;12.35;7.20;;;13.70;69.20;;;;;;5071267;28;20485;-47
2021/04/30 09:40:02;;;;;;;15.98;7.63;;;13.70;69.20;;;;;;5071741;28;20566;-38
2021/04/30 09:42:32;;;;;;;12.18;6.95;;;13.70;69.10;;;;;;5071934;28;20052;-47
2021/04/30 09:45:05;;;;;;;11.80;7.15;;;13.70;69.10;;;;;;5071706;28;20067;-42
2021/04/30 09:47:33;;;;;;;12.82;7.03;;;13.70;69.00;;;;;;5071887;28;20052;-48
2021/04/30 09:49:59;;;;;;;10.00;6.65;;;13.70;69.00;;;;;;5071446;28;20063;-38
2021/04/30 09:52:27;;;;;;;9.90;6.38;;;13.70;69.00;;;;;;5071446;28;20477;-49
2021/04/30 09:55:01;;;;;;;10.30;6.72;;;13.70;69.00;;;;;;5072068;28;20044;-50
2021/04/30 09:57:28;;;;;;;8.93;6.50;;;13.80;69.00;;;;;;5075246;28;20125;-43
2021/04/30 09:59:56;;;;;;;7.88;5.55;;;13.70;69.60;;;;;;5076383;28;20075;-46
2021/04/30 10:02:30;;;;;;;10.13;6.07;;;13.80;69.00;;;;;;5076209;28;20044;-41
2021/04/30 10:05:08;;;;;;;8.73;5.72;;;13.80;69.00;;;;;;5076222;28;20381;-51
2021/04/30 10:07:35;;;;;;;6.82;5.60;;;13.80;68.90;;;;;;5075513;28;20558;-44
2021/04/30 10:10:11;;;;;;;10.32;6.68;;;13.80;68.90;;;;;;5075976;28;20098;-51
2021/04/30 10:12:39;;;;;;;11.93;6.78;;;13.80;68.90;;;;;;5086890;28;20051;-49
2021/04/30 10:15:08;;;;;;;7.57;5.15;;;13.80;68.90;;;;;;5075240;28;20056;-43
2021/04/30 10:17:35;;;;;;;7.97;5.53;;;13.80;68.80;;;;;;5075254;28;20067;-50
2021/04/30 10:20:00;;;;;;;8.82;5.72;;;13.80;68.80;;;;;;5109719;28;20093;-39
2021/04/30 10:22:27;;;;;;;7.50;5.75;;;13.90;68.90;;;;;;5094829;28;20040;-50
2021/04/30 10:24:59;;;;;;;7.18;5.03;;;13.80;68.80;;;;;;5095517;28;20066;-45
2021/04/30 10:27:33;;;;;;;8.82;5.50;;;13.80;68.80;;;;;;5095120;28;20932;-44
2021/04/30 10:30:12;;;;;;;9.05;5.20;;;13.80;68.80;;;;;;5095261;28;20044;-40
2021/04/30 10:32:44;;;;;;;8.75;5.05;;;13.80;68.80;;;;;;5095241;28;20118;-43
2021/04/30 10:35:11;;;;;;;8.88;5.43;;;13.90;68.80;;;;;;5094700;28;20052;-68
2021/04/30 10:37:41;;;;;;;6.97;5.25;;;13.90;68.80;;;;;;5094736;28;20097;-66
2021/04/30 10:40:11;;;;;;;7.63;5.53;;;13.90;68.80;;;;;;5094597;28;20048;-50
2021/04/30 10:42:45;;;;;;;7.25;5.20;;;13.90;68.80;;;;;;5095079;28;20114;-44
2021/04/30 10:45:16;;;;;;;6.28;4.85;;;13.90;68.80;;;;;;5094695;28;20456;-50
2021/04/30 10:48:02;;;;;;;6.30;4.63;;;13.80;68.70;;;;;;5094971;28;20040;-42
2021/04/30 10:50:28;;;;;;;;;;;13.90;68.70;;;;;;5095054;28;20036;-48
2021/04/30 10:53:14;;;;;;;5.38;4.43;;;13.90;68.80;;;;;;5094508;28;19927;-52
2021/04/30 10:55:40;;;;;;;;;;;13.90;68.70;;;;;;5091903;28;20488;-40
2021/04/30 10:58:06;;;;;;;6.70;4.75;;;13.90;68.70;;;;;;5083381;28;19924;-38
2021/04/30 11:00:39;;;;;;;7.00;5.18;;;13.80;68.70;;;;;;5092035;28;20048;-40
2021/04/30 11:03:20;;;;;;;5.85;4.38;;;13.90;68.70;;;;;;5095335;28;20419;-53
2021/04/30 11:06:00;;;;;;;7.43;4.45;;;13.90;68.70;;;;;;5093690;28;20139;-39
2021/04/30 11:08:46;;;;;;;6.65;4.35;;;13.90;68.70;;;;;;5093688;28;20049;-52
2021/04/30 11:11:12;;;;;;;6.43;4.75;;;13.80;68.70;;;;;;5094366;28;20488;-39
2021/04/30 11:13:37;;;;;;;5.60;4.18;;;13.90;68.70;;;;;;5094534;28;20135;-43
2021/04/30 11:16:04;;;;;;;8.48;4.57;;;13.90;68.80;;;;;;5094423;28;20094;-51
2021/04/30 11:18:59;;;;;;;5.97;5.07;;;13.90;68.70;;;;;;5100367;28;20040;-68
2021/04/30 11:22:06;;;;;;;5.45;3.90;;;13.90;68.70;;;;;;5095053;28;20052;-65
2021/04/30 11:24:32;;;;;;;6.97;3.92;;;13.90;68.70;;;;;;5091946;28;20169;-65
2021/04/30 11:27:11;;;;;;;5.85;4.70;;;14.00;68.80;;;;;;5094170;28;20546;-63
2021/04/30 11:29:37;;;;;;;6.60;4.40;;;14.00;68.80;;;;;;5094200;28;20090;-44
2021/04/30 11:32:26;;;;;;;6.13;4.55;;;13.90;68.70;;;;;;5093358;28;20469;-55
2021/04/30 11:34:52;;;;;;;4.85;3.83;;;14.00;68.80;;;;;;5099350;28;20039;-43
2021/04/30 11:37:19;;;;;;;5.35;3.95;;;14.00;68.80;;;;;;5114201;28;20039;-37
2021/04/30 11:39:46;;;;;;;5.00;4.40;;;14.00;68.80;;;;;;5099618;28;20054;-39
2021/04/30 11:42:13;;;;;;;6.75;4.63;;;14.00;68.80;;;;;;5093431;28;20040;-38
2021/04/30 11:44:42;;;;;;;4.97;3.63;;;14.00;68.70;;;;;;5093938;28;20039;-40
2021/04/30 11:47:11;;;;;;;5.78;4.25;;;14.00;68.70;;;;;;5093622;28;20040;-60
2021/04/30 11:49:39;;;;;;;6.07;4.38;;;14.00;68.70;;;;;;5093730;28;20571;-50
2021/04/30 11:52:06;;;;;;;5.80;4.57;;;14.00;68.70;;;;;;5108985;28;20071;-37
2021/04/30 11:54:34;;;;;;;6.68;4.30;;;14.10;68.70;;;;;;5113518;28;20083;-51
2021/04/30 11:57:07;;;;;;;4.70;3.90;;;14.10;68.70;;;;;;5114086;28;20085;-38
2021/04/30 11:59:34;;;;;;;5.60;4.00;;;14.10;68.70;;;;;;5113886;28;20048;-60
2021/04/30 12:02:05;;;;;;;4.57;3.72;;;14.00;68.60;;;;;;5112687;28;20118;-68
2021/04/30 12:04:54;;;;;;;5.13;4.18;;;14.10;68.60;;;;;;5113803;28;20047;-64
2021/04/30 12:07:23;;;;;;;6.20;4.70;;;14.10;68.60;;;;;;5113377;28;20044;-55
2021/04/30 12:09:49;;;;;;;5.13;4.50;;;14.20;68.70;;;;;;5113437;28;20054;-61
2021/04/30 12:12:22;;;;;;;6.53;4.30;;;14.10;68.60;;;;;;5113244;28;20043;-52
2021/04/30 12:14:54;;;;;;;5.00;4.10;;;14.10;68.60;;;;;;5106768;28;20047;-66
2021/04/30 12:17:28;;;;;;;5.68;3.63;;;14.10;68.60;;;;;;5093023;28;20055;-61
2021/04/30 12:19:54;;;;;;;5.85;3.97;;;14.10;68.50;;;;;;5092681;28;20059;-61
2021/04/30 12:22:20;;;;;;;5.57;3.92;;;14.10;68.50;;;;;;5094000;28;20169;-46
2021/04/30 12:24:45;;;;;;;5.13;3.90;;;14.10;68.50;;;;;;5093822;28;20439;-42
2021/04/30 12:27:32;;;;;;;4.82;3.75;;;14.10;68.50;;;;;;5096851;28;20039;-41
2021/04/30 12:29:58;;;;;;;5.65;3.67;;;14.20;68.50;;;;;;5113853;28;20044;-40
2021/04/30 12:32:27;;;;;;;4.75;3.42;;;14.20;68.50;;;;;;5114286;28;20047;-45
2021/04/30 12:34:56;;;;;;;5.90;3.70;;;14.20;68.50;;;;;;5113851;28;20047;-40
2021/04/30 12:37:23;;;;;;;4.68;4.00;;;14.20;68.40;;;;;;5114090;28;20100;-52
2021/04/30 12:39:49;;;;;;;4.38;3.90;;;14.30;68.50;;;;;;5113587;28;20484;-55
2021/04/30 12:42:15;;;;;;;4.90;4.05;;;14.20;68.40;;;;;;5113269;28;20043;-53
2021/04/30 12:44:55;;;;;;;4.15;3.60;;;14.20;68.30;;;;;;5113763;28;20706;-65
2021/04/30 12:47:23;;;;;;;4.93;3.67;;;14.20;68.30;;;;;;5113816;28;20050;-54
2021/04/30 12:49:51;;;;;;;6.45;4.00;;;14.20;68.30;;;;;;5113871;28;20055;-52